createdAt,value
2023-05-18T00:00:01.377Z,2.50
2023-05-18T00:00:22.434Z,2.70
2023-05-18T00:00:43.492Z,2.60
2023-05-18T00:01:04.588Z,2.60
2023-05-18T00:01:25.618Z,2.80
2023-05-18T00:01:46.668Z,2.40
2023-05-18T00:02:07.856Z,2.50
2023-05-18T00:02:29.034Z,2.50
2023-05-18T00:02:50.178Z,2.60
2023-05-18T00:03:11.364Z,2.70
2023-05-18T00:03:32.653Z,2.50
2023-05-18T00:03:53.930Z,2.60
2023-05-18T00:04:15.078Z,2.70
2023-05-18T00:04:36.147Z,2.70
2023-05-18T00:04:57.512Z,2.40
2023-05-18T00:05:18.573Z,2.60
2023-05-18T00:05:39.618Z,2.60
2023-05-18T00:06:00.669Z,2.90
2023-05-18T00:06:21.726Z,2.90
2023-05-18T00:06:42.788Z,2.60
2023-05-18T00:07:03.861Z,2.60
2023-05-18T00:07:24.919Z,2.80
2023-05-18T00:07:45.977Z,2.90
2023-05-18T00:08:08.333Z,3.10
2023-05-18T00:08:30.192Z,3.00
2023-05-18T00:08:51.259Z,3.30
2023-05-18T00:09:12.350Z,3.10
2023-05-18T00:09:33.629Z,2.60
2023-05-18T00:09:54.929Z,2.60
2023-05-18T00:10:16.078Z,2.70
2023-05-18T00:10:37.202Z,2.60
2023-05-18T00:10:58.250Z,2.60
2023-05-18T00:11:19.372Z,2.60
2023-05-18T00:11:40.399Z,2.50
2023-05-18T00:12:01.460Z,2.70
2023-05-18T00:12:22.526Z,2.50
2023-05-18T00:12:43.590Z,2.80
2023-05-18T00:13:04.643Z,2.80
2023-05-18T00:13:25.705Z,2.80
2023-05-18T00:13:46.750Z,2.70
2023-05-18T00:14:07.806Z,2.50
2023-05-18T00:14:28.927Z,2.60
2023-05-18T00:14:50.008Z,3.00
2023-05-18T00:15:11.072Z,2.80
2023-05-18T00:15:32.260Z,2.70
2023-05-18T00:15:53.396Z,2.80
2023-05-18T00:16:14.476Z,2.60
2023-05-18T00:16:35.540Z,3.20
2023-05-18T00:16:56.587Z,3.10
2023-05-18T00:17:17.669Z,2.80
2023-05-18T00:17:38.739Z,2.50
2023-05-18T00:17:59.812Z,2.40
2023-05-18T00:18:20.851Z,3.00
2023-05-18T00:18:41.949Z,3.00
2023-05-18T00:19:03.031Z,2.60
2023-05-18T00:19:24.361Z,2.80
2023-05-18T00:19:45.695Z,3.10
2023-05-18T00:20:06.808Z,2.60
2023-05-18T00:20:27.871Z,2.60
2023-05-18T00:20:48.940Z,2.90
2023-05-18T00:21:09.980Z,3.00
2023-05-18T00:21:31.040Z,3.20
2023-05-18T00:21:52.101Z,3.00
2023-05-18T00:22:13.169Z,2.80
2023-05-18T00:22:34.245Z,2.80
2023-05-18T00:22:55.303Z,3.00
2023-05-18T00:23:16.389Z,3.20
2023-05-18T00:23:37.418Z,2.70
2023-05-18T00:23:58.479Z,3.00
2023-05-18T00:24:19.559Z,2.90
2023-05-18T00:24:40.625Z,2.90
2023-05-18T00:25:01.917Z,2.50
2023-05-18T00:25:23.167Z,2.50
2023-05-18T00:25:44.234Z,2.90
2023-05-18T00:26:05.282Z,2.70
2023-05-18T00:26:26.347Z,2.90
2023-05-18T00:26:47.448Z,2.60
2023-05-18T00:27:08.504Z,2.60
2023-05-18T00:27:29.578Z,2.80
2023-05-18T00:27:50.633Z,2.90
2023-05-18T00:28:11.678Z,2.80
2023-05-18T00:28:32.734Z,2.60
2023-05-18T00:28:53.788Z,2.50
2023-05-18T00:29:14.856Z,2.60
2023-05-18T00:29:35.913Z,2.90
2023-05-18T00:29:56.956Z,2.80
2023-05-18T00:30:18.062Z,2.70
2023-05-18T00:30:39.341Z,2.60
2023-05-18T00:31:00.388Z,2.40
2023-05-18T00:31:21.488Z,2.90
2023-05-18T00:31:42.624Z,3.00
2023-05-18T00:32:03.755Z,3.00
2023-05-18T00:32:24.798Z,3.00
2023-05-18T00:32:45.884Z,2.80
2023-05-18T00:33:07.005Z,2.70
2023-05-18T00:33:28.074Z,2.70
2023-05-18T00:33:49.124Z,2.80
2023-05-18T00:34:10.187Z,3.20
2023-05-18T00:34:31.249Z,2.90
2023-05-18T00:34:52.316Z,3.10
2023-05-18T00:35:13.387Z,3.00
2023-05-18T00:35:34.642Z,2.80
2023-05-18T00:35:55.903Z,2.90
2023-05-18T00:36:16.984Z,3.00
2023-05-18T00:36:38.026Z,2.80
2023-05-18T00:36:59.081Z,2.80
2023-05-18T00:37:20.133Z,2.80
2023-05-18T00:37:41.201Z,2.90
2023-05-18T00:38:02.247Z,2.80
2023-05-18T00:38:23.299Z,2.70
2023-05-18T00:38:44.357Z,2.80
2023-05-18T00:39:05.415Z,3.00
2023-05-18T00:39:26.472Z,3.10
2023-05-18T00:39:47.530Z,3.30
2023-05-18T00:40:08.614Z,3.10
2023-05-18T00:40:29.677Z,3.00
2023-05-18T00:40:50.979Z,3.20
2023-05-18T00:41:12.077Z,3.20
2023-05-18T00:41:33.134Z,3.20
2023-05-18T00:41:54.202Z,3.00
2023-05-18T00:42:15.298Z,3.00
2023-05-18T00:42:36.340Z,2.90
2023-05-18T00:42:57.419Z,3.10
2023-05-18T00:43:18.470Z,2.90
2023-05-18T00:43:39.511Z,2.90
2023-05-18T00:44:00.583Z,3.20
2023-05-18T00:44:21.624Z,2.70
2023-05-18T00:44:42.686Z,2.50
2023-05-18T00:45:03.757Z,2.70
2023-05-18T00:45:24.823Z,2.70
2023-05-18T00:45:45.920Z,2.80
2023-05-18T00:46:07.295Z,3.00
2023-05-18T00:46:28.563Z,2.90
2023-05-18T00:46:49.678Z,2.70
2023-05-18T00:47:10.736Z,2.70
2023-05-18T00:47:31.794Z,2.40
2023-05-18T00:47:52.888Z,2.60
2023-05-18T00:48:14.005Z,2.50
2023-05-18T00:48:35.081Z,2.90
2023-05-18T00:48:56.136Z,3.10
2023-05-18T00:49:17.194Z,2.90
2023-05-18T00:49:38.261Z,3.00
2023-05-18T00:49:59.303Z,3.50
2023-05-18T00:50:20.368Z,3.20
2023-05-18T00:50:41.434Z,3.10
2023-05-18T00:51:02.488Z,3.00
2023-05-18T00:51:23.587Z,2.70
2023-05-18T00:51:44.865Z,3.00
2023-05-18T00:52:05.916Z,3.10
2023-05-18T00:52:26.977Z,3.00
2023-05-18T00:52:48.026Z,2.80
2023-05-18T00:53:09.161Z,2.90
2023-05-18T00:53:30.177Z,3.10
2023-05-18T00:53:51.241Z,3.00
2023-05-18T00:54:12.352Z,3.30
2023-05-18T00:54:33.378Z,3.00
2023-05-18T00:54:54.445Z,3.00
2023-05-18T00:55:15.494Z,2.90
2023-05-18T00:55:36.560Z,3.00
2023-05-18T00:55:57.605Z,2.90
2023-05-18T00:56:18.686Z,2.90
2023-05-18T00:56:39.942Z,2.70
2023-05-18T00:57:01.211Z,2.90
2023-05-18T00:57:22.265Z,2.90
2023-05-18T00:57:43.330Z,3.00
2023-05-18T00:58:04.380Z,2.90
2023-05-18T00:58:25.428Z,3.00
2023-05-18T00:58:46.492Z,3.20
2023-05-18T00:59:07.544Z,3.10
2023-05-18T00:59:28.610Z,3.10
2023-05-18T00:59:49.655Z,3.10
2023-05-18T01:00:10.744Z,3.00
2023-05-18T01:00:31.867Z,3.10
2023-05-18T01:00:52.940Z,3.10
2023-05-18T01:01:14.089Z,3.20
2023-05-18T01:01:35.372Z,3.00
2023-05-18T01:01:56.701Z,3.20
2023-05-18T01:02:17.865Z,3.00
2023-05-18T01:02:39.010Z,3.00
2023-05-18T01:03:00.441Z,3.10
2023-05-18T01:03:21.629Z,3.00
2023-05-18T01:03:42.707Z,2.80
2023-05-18T01:04:03.767Z,3.00
2023-05-18T01:04:24.862Z,3.20
2023-05-18T01:04:45.921Z,3.40
2023-05-18T01:05:06.969Z,3.50
2023-05-18T01:05:28.240Z,3.10
2023-05-18T01:05:49.348Z,3.00
2023-05-18T01:06:10.458Z,3.00
2023-05-18T01:06:31.497Z,2.90
2023-05-18T01:06:52.555Z,2.90
2023-05-18T01:07:13.827Z,2.80
2023-05-18T01:07:35.093Z,3.00
2023-05-18T01:07:56.153Z,3.10
2023-05-18T01:08:17.206Z,2.80
2023-05-18T01:08:38.254Z,3.00
2023-05-18T01:08:59.325Z,3.00
2023-05-18T01:09:20.371Z,3.20
2023-05-18T01:09:41.431Z,3.20
2023-05-18T01:10:02.494Z,3.00
2023-05-18T01:10:23.571Z,3.00
2023-05-18T01:10:44.600Z,2.90
2023-05-18T01:11:05.705Z,3.20
2023-05-18T01:11:26.838Z,2.80
2023-05-18T01:11:47.900Z,3.00
2023-05-18T01:12:08.971Z,3.20
2023-05-18T01:12:30.055Z,3.40
2023-05-18T01:12:51.338Z,2.90
2023-05-18T01:13:12.403Z,2.80
2023-05-18T01:13:33.449Z,3.20
2023-05-18T01:13:54.515Z,3.20
2023-05-18T01:14:15.563Z,3.10
2023-05-18T01:14:36.625Z,2.90
2023-05-18T01:14:57.729Z,3.40
2023-05-18T01:15:18.753Z,3.70
2023-05-18T01:15:39.854Z,3.20
2023-05-18T01:16:00.929Z,2.90
2023-05-18T01:16:22.035Z,3.00
2023-05-18T01:16:43.126Z,2.90
2023-05-18T01:17:04.225Z,2.90
2023-05-18T01:17:25.294Z,3.20
2023-05-18T01:17:46.578Z,3.20
2023-05-18T01:18:07.910Z,3.30
2023-05-18T01:18:28.996Z,3.20
2023-05-18T01:18:50.090Z,3.10
2023-05-18T01:19:11.237Z,3.20
2023-05-18T01:19:32.298Z,2.90
2023-05-18T01:19:53.353Z,3.20
2023-05-18T01:20:14.410Z,3.20
2023-05-18T01:20:35.468Z,3.10
2023-05-18T01:20:56.525Z,3.20
2023-05-18T01:21:17.581Z,3.10
2023-05-18T01:21:38.638Z,2.80
2023-05-18T01:21:59.709Z,3.10
2023-05-18T01:22:20.780Z,2.90
2023-05-18T01:22:41.833Z,3.00
2023-05-18T01:23:02.921Z,3.00
2023-05-18T01:23:24.200Z,3.10
2023-05-18T01:23:45.289Z,3.20
2023-05-18T01:24:06.331Z,3.00
2023-05-18T01:24:27.381Z,3.30
2023-05-18T01:24:48.443Z,3.20
2023-05-18T01:25:09.510Z,3.00
2023-05-18T01:25:30.819Z,3.30
2023-05-18T01:25:52.092Z,3.30
2023-05-18T01:26:13.154Z,3.00
2023-05-18T01:26:34.177Z,2.90
2023-05-18T01:26:55.234Z,2.90
2023-05-18T01:27:16.298Z,3.30
2023-05-18T01:27:37.359Z,2.80
2023-05-18T01:27:58.418Z,3.10
2023-05-18T01:28:19.525Z,3.10
2023-05-18T01:28:40.628Z,3.00
2023-05-18T01:29:01.679Z,2.80
2023-05-18T01:29:22.757Z,3.00
2023-05-18T01:29:43.790Z,2.90
2023-05-18T01:30:04.848Z,3.30
2023-05-18T01:30:25.934Z,3.20
2023-05-18T01:30:47.099Z,2.90
2023-05-18T01:31:08.248Z,3.20
2023-05-18T01:31:29.422Z,3.60
2023-05-18T01:31:50.575Z,3.10
2023-05-18T01:32:11.603Z,3.10
2023-05-18T01:32:32.764Z,3.20
2023-05-18T01:32:53.812Z,3.20
2023-05-18T01:33:14.892Z,3.40
2023-05-18T01:33:35.998Z,3.30
2023-05-18T01:33:57.077Z,3.50
2023-05-18T01:34:18.134Z,3.10
2023-05-18T01:34:39.190Z,3.30
2023-05-18T01:35:00.275Z,3.50
2023-05-18T01:35:21.321Z,3.00
2023-05-18T01:35:42.385Z,2.90
2023-05-18T01:36:03.440Z,3.20
2023-05-18T01:36:24.493Z,3.30
2023-05-18T01:36:45.563Z,3.30
2023-05-18T01:37:06.621Z,3.00
2023-05-18T01:37:27.689Z,3.20
2023-05-18T01:37:48.753Z,3.50
2023-05-18T01:38:09.797Z,3.90
2023-05-18T01:38:30.854Z,3.50
2023-05-18T01:38:51.947Z,3.30
2023-05-18T01:39:13.242Z,3.20
2023-05-18T01:39:34.297Z,3.30
2023-05-18T01:39:55.359Z,3.40
2023-05-18T01:40:16.429Z,3.30
2023-05-18T01:40:37.470Z,3.50
2023-05-18T01:40:58.535Z,2.90
2023-05-18T01:41:19.603Z,3.20
2023-05-18T01:41:40.648Z,3.30
2023-05-18T01:42:01.698Z,3.20
2023-05-18T01:42:22.761Z,3.10
2023-05-18T01:42:43.809Z,3.10
2023-05-18T01:43:04.864Z,3.20
2023-05-18T01:43:25.922Z,3.00
2023-05-18T01:43:47.018Z,3.10
2023-05-18T01:44:08.114Z,3.10
2023-05-18T01:44:29.377Z,2.90
2023-05-18T01:44:50.430Z,3.10
2023-05-18T01:45:11.505Z,2.90
2023-05-18T01:45:32.710Z,3.10
2023-05-18T01:45:53.767Z,3.30
2023-05-18T01:46:14.869Z,3.10
2023-05-18T01:46:35.987Z,3.10
2023-05-18T01:46:57.079Z,2.90
2023-05-18T01:47:18.092Z,3.10
2023-05-18T01:47:39.232Z,3.30
2023-05-18T01:48:00.366Z,3.00
2023-05-18T01:48:21.420Z,3.00
2023-05-18T01:48:42.479Z,3.10
2023-05-18T01:49:03.542Z,2.90
2023-05-18T01:49:24.644Z,3.20
2023-05-18T01:49:45.744Z,3.00
2023-05-18T01:50:06.792Z,3.30
2023-05-18T01:50:27.866Z,3.10
2023-05-18T01:50:48.917Z,3.40
2023-05-18T01:51:09.974Z,3.30
2023-05-18T01:51:31.050Z,3.00
2023-05-18T01:51:52.102Z,3.10
2023-05-18T01:52:13.168Z,3.10
2023-05-18T01:52:34.240Z,3.20
2023-05-18T01:52:55.291Z,3.20
2023-05-18T01:53:16.363Z,3.30
2023-05-18T01:53:37.401Z,3.00
2023-05-18T01:53:58.482Z,3.20
2023-05-18T01:54:19.548Z,3.20
2023-05-18T01:54:40.822Z,3.00
2023-05-18T01:55:02.126Z,3.00
2023-05-18T01:55:23.158Z,3.30
2023-05-18T01:55:44.204Z,3.40
2023-05-18T01:56:05.256Z,3.30
2023-05-18T01:56:26.322Z,3.60
2023-05-18T01:56:47.371Z,3.20
2023-05-18T01:57:08.452Z,3.10
2023-05-18T01:57:29.493Z,3.00
2023-05-18T01:57:50.542Z,3.10
2023-05-18T01:58:11.614Z,3.00
2023-05-18T01:58:32.657Z,3.00
2023-05-18T01:58:53.719Z,3.00
2023-05-18T01:59:14.787Z,3.10
2023-05-18T01:59:35.844Z,3.00
2023-05-18T02:00:17.961Z,2.80
2023-05-18T02:00:39.048Z,3.00
2023-05-18T02:01:00.188Z,3.10
2023-05-18T02:01:21.277Z,3.10
2023-05-18T02:01:42.320Z,3.40
2023-05-18T02:02:03.553Z,3.40
2023-05-18T02:02:24.962Z,3.50
2023-05-18T02:02:46.184Z,3.40
2023-05-18T02:03:07.361Z,3.20
2023-05-18T02:03:28.600Z,3.20
2023-05-18T02:03:49.894Z,3.10
2023-05-18T02:04:11.130Z,3.30
2023-05-18T02:04:32.198Z,3.20
2023-05-18T02:04:53.256Z,3.40
2023-05-18T02:05:14.330Z,3.20
2023-05-18T02:05:35.613Z,3.10
2023-05-18T02:05:56.733Z,3.10
2023-05-18T02:06:17.787Z,3.10
2023-05-18T02:06:38.851Z,3.00
2023-05-18T02:06:59.961Z,3.20
2023-05-18T02:07:20.992Z,3.30
2023-05-18T02:07:42.044Z,3.60
2023-05-18T02:08:03.093Z,2.80
2023-05-18T02:08:24.155Z,2.80
2023-05-18T02:08:45.211Z,3.20
2023-05-18T02:09:06.295Z,3.10
2023-05-18T02:09:27.319Z,3.40
2023-05-18T02:09:48.380Z,3.20
2023-05-18T02:10:09.445Z,3.00
2023-05-18T02:10:30.493Z,3.20
2023-05-18T02:10:51.757Z,3.30
2023-05-18T02:11:12.848Z,3.20
2023-05-18T02:11:33.904Z,3.10
2023-05-18T02:11:54.995Z,3.00
2023-05-18T02:12:16.072Z,2.90
2023-05-18T02:12:37.114Z,2.90
2023-05-18T02:12:58.174Z,2.80
2023-05-18T02:13:19.215Z,3.10
2023-05-18T02:13:40.306Z,3.00
2023-05-18T02:14:01.342Z,2.80
2023-05-18T02:14:22.421Z,3.20
2023-05-18T02:14:43.452Z,3.00
2023-05-18T02:15:04.517Z,3.20
2023-05-18T02:15:25.570Z,3.40
2023-05-18T02:15:46.636Z,3.50
2023-05-18T02:16:07.996Z,3.40
2023-05-18T02:16:29.158Z,2.90
2023-05-18T02:16:50.189Z,2.90
2023-05-18T02:17:11.268Z,3.20
2023-05-18T02:17:32.414Z,3.50
2023-05-18T02:17:53.491Z,3.20
2023-05-18T02:18:14.555Z,3.20
2023-05-18T02:18:35.640Z,3.20
2023-05-18T02:18:56.728Z,3.30
2023-05-18T02:19:17.878Z,3.20
2023-05-18T02:19:38.958Z,3.40
2023-05-18T02:20:00.046Z,3.00
2023-05-18T02:20:21.118Z,3.30
2023-05-18T02:20:42.143Z,3.50
2023-05-18T02:21:03.268Z,3.10
2023-05-18T02:21:25.058Z,3.10
2023-05-18T02:21:46.314Z,3.10
2023-05-18T02:22:07.404Z,3.40
2023-05-18T02:22:28.450Z,3.80
2023-05-18T02:22:49.506Z,3.20
2023-05-18T02:23:10.575Z,3.20
2023-05-18T02:23:31.661Z,3.10
2023-05-18T02:23:52.745Z,2.90
2023-05-18T02:24:13.775Z,3.00
2023-05-18T02:24:34.891Z,3.30
2023-05-18T02:24:55.922Z,3.40
2023-05-18T02:25:16.965Z,3.60
2023-05-18T02:25:38.018Z,3.30
2023-05-18T02:25:59.169Z,3.40
2023-05-18T02:26:20.201Z,3.20
2023-05-18T02:26:41.291Z,2.80
2023-05-18T02:27:02.575Z,3.10
2023-05-18T02:27:23.617Z,3.10
2023-05-18T02:27:44.673Z,3.00
2023-05-18T02:28:05.820Z,2.80
2023-05-18T02:28:26.833Z,3.10
2023-05-18T02:28:47.890Z,3.50
2023-05-18T02:29:08.947Z,3.00
2023-05-18T02:29:30.054Z,3.10
2023-05-18T02:29:51.071Z,3.10
2023-05-18T02:30:14.411Z,3.20
2023-05-18T02:30:36.887Z,3.20
2023-05-18T02:30:57.947Z,3.10
2023-05-18T02:31:19.044Z,3.00
2023-05-18T02:31:40.235Z,3.10
2023-05-18T02:32:01.344Z,3.30
2023-05-18T02:32:22.553Z,3.20
2023-05-18T02:32:43.608Z,3.10
2023-05-18T02:33:04.681Z,3.10
2023-05-18T02:33:25.726Z,3.10
2023-05-18T02:33:46.791Z,3.20
2023-05-18T02:34:07.844Z,3.10
2023-05-18T02:34:28.918Z,3.10
2023-05-18T02:34:49.974Z,3.00
2023-05-18T02:35:11.090Z,3.00
2023-05-18T02:35:32.314Z,3.10
2023-05-18T02:35:53.536Z,3.40
2023-05-18T02:36:14.597Z,3.40
2023-05-18T02:36:35.652Z,3.20
2023-05-18T02:36:56.721Z,3.40
2023-05-18T02:37:17.803Z,3.50
2023-05-18T02:37:38.955Z,3.40
2023-05-18T02:37:59.966Z,3.50
2023-05-18T02:38:21.025Z,3.30
2023-05-18T02:38:42.099Z,3.30
2023-05-18T02:39:03.165Z,2.90
2023-05-18T02:39:24.206Z,3.30
2023-05-18T02:39:45.255Z,3.40
2023-05-18T02:40:06.360Z,3.30
2023-05-18T02:40:27.392Z,3.30
2023-05-18T02:40:48.505Z,3.40
2023-05-18T02:41:09.528Z,3.40
2023-05-18T02:41:30.620Z,3.10
2023-05-18T02:41:51.700Z,3.50
2023-05-18T02:42:12.781Z,3.20
2023-05-18T02:42:33.874Z,3.20
2023-05-18T02:42:54.948Z,3.30
2023-05-18T02:43:16.001Z,3.20
2023-05-18T02:43:37.064Z,3.50
2023-05-18T02:43:58.138Z,3.80
2023-05-18T02:44:19.244Z,3.20
2023-05-18T02:44:40.278Z,3.20
2023-05-18T02:45:01.338Z,3.20
2023-05-18T02:45:22.398Z,3.40
2023-05-18T02:45:43.484Z,3.40
2023-05-18T02:46:04.615Z,3.10
2023-05-18T02:46:25.781Z,3.10
2023-05-18T02:46:46.956Z,3.60
2023-05-18T02:47:08.071Z,3.20
2023-05-18T02:47:29.166Z,3.10
2023-05-18T02:47:50.467Z,3.30
2023-05-18T02:48:11.830Z,3.10
2023-05-18T02:48:32.868Z,3.20
2023-05-18T02:48:53.920Z,3.50
2023-05-18T02:49:15.000Z,3.20
2023-05-18T02:49:36.113Z,3.00
2023-05-18T02:49:57.202Z,3.20
2023-05-18T02:50:18.239Z,3.20
2023-05-18T02:50:39.313Z,3.40
2023-05-18T02:51:00.365Z,3.60
2023-05-18T02:51:21.430Z,3.60
2023-05-18T02:51:42.486Z,3.00
2023-05-18T02:52:03.558Z,3.40
2023-05-18T02:52:24.611Z,3.50
2023-05-18T02:52:45.685Z,3.10
2023-05-18T02:53:06.781Z,3.30
2023-05-18T02:53:27.894Z,3.80
2023-05-18T02:53:48.923Z,3.60
2023-05-18T02:54:09.988Z,3.20
2023-05-18T02:54:31.038Z,3.30
2023-05-18T02:54:52.095Z,3.30
2023-05-18T02:55:13.136Z,3.20
2023-05-18T02:55:34.226Z,3.40
2023-05-18T02:55:55.310Z,3.50
2023-05-18T02:56:16.373Z,3.40
2023-05-18T02:56:37.403Z,3.20
2023-05-18T02:56:58.465Z,3.30
2023-05-18T02:57:19.518Z,3.40
2023-05-18T02:57:40.581Z,3.50
2023-05-18T02:58:01.634Z,3.10
2023-05-18T02:58:22.909Z,3.20
2023-05-18T02:58:44.196Z,3.70
2023-05-18T02:59:07.927Z,3.30
2023-05-18T02:59:29.730Z,3.00
2023-05-18T02:59:50.811Z,2.90
2023-05-18T03:00:11.884Z,3.40
2023-05-18T03:00:32.921Z,3.50
2023-05-18T03:00:53.986Z,3.80
2023-05-18T03:01:15.070Z,3.40
2023-05-18T03:01:36.287Z,3.30
2023-05-18T03:01:57.395Z,3.10
2023-05-18T03:02:18.586Z,3.70
2023-05-18T03:02:39.741Z,3.50
2023-05-18T03:03:00.921Z,3.50
2023-05-18T03:03:22.097Z,3.60
2023-05-18T03:03:43.457Z,3.50
2023-05-18T03:04:04.732Z,3.60
2023-05-18T03:04:26.163Z,3.40
2023-05-18T03:04:49.362Z,3.40
2023-05-18T03:05:10.527Z,3.20
2023-05-18T03:05:31.978Z,3.40
2023-05-18T03:05:53.047Z,3.50
2023-05-18T03:06:14.144Z,3.40
2023-05-18T03:06:35.164Z,3.20
2023-05-18T03:06:56.226Z,3.60
2023-05-18T03:07:17.282Z,3.40
2023-05-18T03:07:38.334Z,3.20
2023-05-18T03:07:59.410Z,3.50
2023-05-18T03:08:20.475Z,3.10
2023-05-18T03:08:41.538Z,3.20
2023-05-18T03:09:02.798Z,3.00
2023-05-18T03:09:23.892Z,3.70
2023-05-18T03:09:44.962Z,3.40
2023-05-18T03:10:06.093Z,3.20
2023-05-18T03:10:27.154Z,2.90
2023-05-18T03:10:48.196Z,3.60
2023-05-18T03:11:09.304Z,3.60
2023-05-18T03:11:30.329Z,3.80
2023-05-18T03:11:51.383Z,3.40
2023-05-18T03:12:12.443Z,3.20
2023-05-18T03:12:33.513Z,3.10
2023-05-18T03:12:54.556Z,3.30
2023-05-18T03:13:15.612Z,3.20
2023-05-18T03:13:36.671Z,3.10
2023-05-18T03:13:57.749Z,3.20
2023-05-18T03:14:18.882Z,4.00
2023-05-18T03:14:40.182Z,4.00
2023-05-18T03:15:01.230Z,3.40
2023-05-18T03:15:22.276Z,3.20
2023-05-18T03:15:43.349Z,3.30
2023-05-18T03:16:04.456Z,3.50
2023-05-18T03:16:25.519Z,3.40
2023-05-18T03:16:46.622Z,3.50
2023-05-18T03:17:07.773Z,3.60
2023-05-18T03:17:28.922Z,3.70
2023-05-18T03:17:50.065Z,3.70
2023-05-18T03:18:11.187Z,3.20
2023-05-18T03:18:32.220Z,3.40
2023-05-18T03:18:53.312Z,3.30
2023-05-18T03:19:14.501Z,3.20
2023-05-18T03:19:35.816Z,3.20
2023-05-18T03:19:56.898Z,3.30
2023-05-18T03:20:17.970Z,3.40
2023-05-18T03:20:39.014Z,3.50
2023-05-18T03:21:00.069Z,4.10
2023-05-18T03:21:21.162Z,3.50
2023-05-18T03:21:42.204Z,3.60
2023-05-18T03:22:03.264Z,3.80
2023-05-18T03:22:24.334Z,3.70
2023-05-18T03:22:45.396Z,3.40
2023-05-18T03:23:06.440Z,3.40
2023-05-18T03:23:27.499Z,3.30
2023-05-18T03:23:48.557Z,3.20
2023-05-18T03:24:09.623Z,3.10
2023-05-18T03:24:30.773Z,3.20
2023-05-18T03:24:51.821Z,3.50
2023-05-18T03:25:13.114Z,3.70
2023-05-18T03:25:34.182Z,3.60
2023-05-18T03:25:55.244Z,3.40
2023-05-18T03:26:16.305Z,3.80
2023-05-18T03:26:37.420Z,3.90
2023-05-18T03:26:58.439Z,3.30
2023-05-18T03:27:19.514Z,3.40
2023-05-18T03:27:40.585Z,3.50
2023-05-18T03:28:01.656Z,3.30
2023-05-18T03:28:22.758Z,3.70
2023-05-18T03:28:43.823Z,3.70
2023-05-18T03:29:04.914Z,3.90
2023-05-18T03:29:25.980Z,3.90
2023-05-18T03:29:47.012Z,3.50
2023-05-18T03:30:08.105Z,3.40
2023-05-18T03:30:29.368Z,3.60
2023-05-18T03:30:50.436Z,3.40
2023-05-18T03:31:11.538Z,3.40
2023-05-18T03:31:32.642Z,3.50
2023-05-18T03:31:53.850Z,3.50
2023-05-18T03:32:14.943Z,3.80
2023-05-18T03:32:36.026Z,3.20
2023-05-18T03:32:57.140Z,3.80
2023-05-18T03:33:18.235Z,3.80
2023-05-18T03:33:39.297Z,3.30
2023-05-18T03:34:00.353Z,3.60
2023-05-18T03:34:21.404Z,3.40
2023-05-18T03:34:42.474Z,3.50
2023-05-18T03:35:03.532Z,3.60
2023-05-18T03:35:24.629Z,3.40
2023-05-18T03:35:47.790Z,3.10
2023-05-18T03:36:09.558Z,3.40
2023-05-18T03:36:30.614Z,3.70
2023-05-18T03:36:51.712Z,3.40
2023-05-18T03:37:12.756Z,3.80
2023-05-18T03:37:33.807Z,3.90
2023-05-18T03:37:54.859Z,3.60
2023-05-18T03:38:15.925Z,3.70
2023-05-18T03:38:36.971Z,3.60
2023-05-18T03:38:58.033Z,3.80
2023-05-18T03:39:19.094Z,3.60
2023-05-18T03:39:40.152Z,3.70
2023-05-18T03:40:01.213Z,3.50
2023-05-18T03:40:22.273Z,3.40
2023-05-18T03:40:43.419Z,3.60
2023-05-18T03:41:04.493Z,3.30
2023-05-18T03:41:25.574Z,3.30
2023-05-18T03:41:46.627Z,3.50
2023-05-18T03:42:07.696Z,3.30
2023-05-18T03:42:28.772Z,3.50
2023-05-18T03:42:49.837Z,3.60
2023-05-18T03:43:10.893Z,3.40
2023-05-18T03:43:31.950Z,3.40
2023-05-18T03:43:53.028Z,3.60
2023-05-18T03:44:14.064Z,3.50
2023-05-18T03:44:35.170Z,3.60
2023-05-18T03:44:56.201Z,3.70
2023-05-18T03:45:17.254Z,3.50
2023-05-18T03:45:38.315Z,3.50
2023-05-18T03:45:59.482Z,3.60
2023-05-18T03:46:20.821Z,4.00
2023-05-18T03:46:42.042Z,3.40
2023-05-18T03:47:03.123Z,3.80
2023-05-18T03:47:24.192Z,3.50
2023-05-18T03:47:45.384Z,3.50
2023-05-18T03:48:06.590Z,3.70
2023-05-18T03:48:27.672Z,3.20
2023-05-18T03:48:48.725Z,3.20
2023-05-18T03:49:09.826Z,3.90
2023-05-18T03:49:30.894Z,4.00
2023-05-18T03:49:51.930Z,3.50
2023-05-18T03:50:12.994Z,3.30
2023-05-18T03:50:34.072Z,3.80
2023-05-18T03:50:55.136Z,3.50
2023-05-18T03:51:16.393Z,3.50
2023-05-18T03:51:37.495Z,3.50
2023-05-18T03:51:58.554Z,4.00
2023-05-18T03:52:19.615Z,3.80
2023-05-18T03:52:40.702Z,3.60
2023-05-18T03:53:01.752Z,3.40
2023-05-18T03:53:22.813Z,3.30
2023-05-18T03:53:43.872Z,3.50
2023-05-18T03:54:05.023Z,3.40
2023-05-18T03:54:26.073Z,3.40
2023-05-18T03:54:47.120Z,3.40
2023-05-18T03:55:08.213Z,3.70
2023-05-18T03:55:29.470Z,3.70
2023-05-18T03:55:50.617Z,3.40
2023-05-18T03:56:11.650Z,3.80
2023-05-18T03:56:32.935Z,3.90
2023-05-18T03:56:54.192Z,3.70
2023-05-18T03:57:15.241Z,4.00
2023-05-18T03:57:36.368Z,3.90
2023-05-18T03:57:57.388Z,3.60
2023-05-18T03:58:18.452Z,3.60
2023-05-18T03:58:39.505Z,3.40
2023-05-18T03:59:00.585Z,3.90
2023-05-18T03:59:21.625Z,3.80
2023-05-18T03:59:42.680Z,3.50
2023-05-18T04:00:03.749Z,3.50
2023-05-18T04:00:24.801Z,3.40
2023-05-18T04:00:45.854Z,3.70
2023-05-18T04:01:06.948Z,3.70
2023-05-18T04:01:27.980Z,3.50
2023-05-18T04:01:49.537Z,3.60
2023-05-18T04:02:10.893Z,3.40
2023-05-18T04:02:32.074Z,3.60
2023-05-18T04:02:53.324Z,3.60
2023-05-18T04:03:14.593Z,4.10
2023-05-18T04:03:35.874Z,3.90
2023-05-18T04:03:57.007Z,3.80
2023-05-18T04:04:18.576Z,3.30
2023-05-18T04:04:39.800Z,3.70
2023-05-18T04:05:00.850Z,3.50
2023-05-18T04:05:21.900Z,3.60
2023-05-18T04:05:42.961Z,3.60
2023-05-18T04:06:04.031Z,3.60
2023-05-18T04:06:25.147Z,3.60
2023-05-18T04:06:46.180Z,3.40
2023-05-18T04:07:07.464Z,3.40
2023-05-18T04:07:28.573Z,3.70
2023-05-18T04:07:49.647Z,3.60
2023-05-18T04:08:10.692Z,3.90
2023-05-18T04:08:31.762Z,4.40
2023-05-18T04:08:52.812Z,3.70
2023-05-18T04:09:13.888Z,3.40
2023-05-18T04:09:34.942Z,3.70
2023-05-18T04:09:56.051Z,3.80
2023-05-18T04:10:17.102Z,3.60
2023-05-18T04:10:38.136Z,3.80
2023-05-18T04:10:59.211Z,3.60
2023-05-18T04:11:20.258Z,3.60
2023-05-18T04:11:41.330Z,3.40
2023-05-18T04:12:02.374Z,3.60
2023-05-18T04:12:23.499Z,3.50
2023-05-18T04:12:44.574Z,3.50
2023-05-18T04:13:05.634Z,3.10
2023-05-18T04:13:26.761Z,3.60
2023-05-18T04:13:47.805Z,3.60
2023-05-18T04:14:08.849Z,3.40
2023-05-18T04:14:29.895Z,3.40
2023-05-18T04:14:50.956Z,3.30
2023-05-18T04:15:12.071Z,3.60
2023-05-18T04:15:33.101Z,3.80
2023-05-18T04:15:54.192Z,3.60
2023-05-18T04:16:15.288Z,3.50
2023-05-18T04:16:36.412Z,3.30
2023-05-18T04:16:57.523Z,3.80
2023-05-18T04:17:18.611Z,4.00
2023-05-18T04:17:39.892Z,3.50
2023-05-18T04:18:01.260Z,3.80
2023-05-18T04:18:22.350Z,3.80
2023-05-18T04:18:43.431Z,3.80
2023-05-18T04:19:07.202Z,3.50
2023-05-18T04:19:29.318Z,3.80
2023-05-18T04:19:50.394Z,3.90
2023-05-18T04:20:11.571Z,4.10
2023-05-18T04:20:32.642Z,3.60
2023-05-18T04:20:53.678Z,3.50
2023-05-18T04:21:14.743Z,3.80
2023-05-18T04:21:35.821Z,3.50
2023-05-18T04:21:56.872Z,4.00
2023-05-18T04:22:17.940Z,4.20
2023-05-18T04:22:39.015Z,3.70
2023-05-18T04:23:00.270Z,3.70
2023-05-18T04:23:21.385Z,3.90
2023-05-18T04:23:42.433Z,3.40
2023-05-18T04:24:03.503Z,3.30
2023-05-18T04:24:24.569Z,3.40
2023-05-18T04:24:45.666Z,3.50
2023-05-18T04:25:06.733Z,3.60
2023-05-18T04:25:27.860Z,3.50
2023-05-18T04:25:49.209Z,3.50
2023-05-18T04:26:10.278Z,3.30
2023-05-18T04:26:31.326Z,3.90
2023-05-18T04:26:52.420Z,3.90
2023-05-18T04:27:13.496Z,4.10
2023-05-18T04:27:34.535Z,3.60
2023-05-18T04:27:55.654Z,3.70
2023-05-18T04:28:16.914Z,3.50
2023-05-18T04:28:38.167Z,3.10
2023-05-18T04:28:59.241Z,3.60
2023-05-18T04:29:20.290Z,3.60
2023-05-18T04:29:41.350Z,3.90
2023-05-18T04:30:02.405Z,3.60
2023-05-18T04:30:23.473Z,3.50
2023-05-18T04:30:44.529Z,3.50
2023-05-18T04:31:05.616Z,3.90
2023-05-18T04:31:26.707Z,3.70
2023-05-18T04:31:47.771Z,3.40
2023-05-18T04:32:09.083Z,3.70
2023-05-18T04:32:30.201Z,3.70
2023-05-18T04:32:51.316Z,3.90
2023-05-18T04:33:12.408Z,3.60
2023-05-18T04:33:33.542Z,4.00
2023-05-18T04:33:54.829Z,3.90
2023-05-18T04:34:15.855Z,3.50
2023-05-18T04:34:36.921Z,3.60
2023-05-18T04:34:57.987Z,4.10
2023-05-18T04:35:19.047Z,4.20
2023-05-18T04:35:40.114Z,3.80
2023-05-18T04:36:01.168Z,3.80
2023-05-18T04:36:22.219Z,3.60
2023-05-18T04:36:43.277Z,3.70
2023-05-18T04:37:04.325Z,3.60
2023-05-18T04:37:25.403Z,3.70
2023-05-18T04:37:46.517Z,3.90
2023-05-18T04:38:07.557Z,3.60
2023-05-18T04:38:28.607Z,3.40
2023-05-18T04:38:49.744Z,3.50
2023-05-18T04:39:11.002Z,3.50
2023-05-18T04:39:32.067Z,3.70
2023-05-18T04:39:53.123Z,3.60
2023-05-18T04:40:14.454Z,3.40
2023-05-18T04:40:35.511Z,3.30
2023-05-18T04:40:56.552Z,3.40
2023-05-18T04:41:17.617Z,3.20